CheckWX is a tool to help pilots better visualize weather data.  It is not intended as a substitute for an official pre-flight weather briefing.

12:21:48 UTC

KOGS METAR
Ogdensburg International Airport
Ogdensburg, New York, USA
Current

27 mins ago

KOGS 181155Z AUTO 05010G16KT 2 1/2SM -SN SCT011 OVC029 M11/M16 A2991 RMK AO2
Observed
Feb-18 @ 11:55 UTC
Wind
  • 050° at 10 KTS
  • Gusting to 16 KTS
Visibility
2 1/2 SM
Flight Rules
IFR
Conditions
Light Snow
Cloud Levels
  • Scattered at 1,100' AGL
  • Overcast at 2,900' AGL
Temperature
-11°C / 12°F
Dewpoint
-16°C / 3°F
Humidity
67%
Altimeter
29.91" Hg
Pressure
1012.92 hPa
Previous

47 mins ago

KOGS 181135Z AUTO 05008G16KT 9SM -SN SCT031 BKN037 OVC047 M11/M16 A2991 RMK AO2
Observed
Feb-18 @ 11:35 UTC
Wind
  • 050° at 8 KTS
  • Gusting to 16 KTS
Visibility
9 SM
Flight Rules
VFR
Conditions
Light Snow
Cloud Levels
  • Scattered at 3,100' AGL
  • Broken at 3,700' AGL
  • Overcast at 4,700' AGL
Temperature
-11°C / 12°F
Dewpoint
-16°C / 3°F
Humidity
67%
Altimeter
29.91" Hg
Pressure
1012.92 hPa
Previous

1 hour ago

KOGS 181115Z AUTO 04008G15KT 10SM BKN049 OVC060 M11/M16 A2991 RMK AO2
Observed
Feb-18 @ 11:15 UTC
Wind
  • 040° at 8 KTS
  • Gusting to 15 KTS
Visibility
10 SM
Flight Rules
VFR
Cloud Levels
  • Broken at 4,900' AGL
  • Overcast at 6,000' AGL
Temperature
-11°C / 12°F
Dewpoint
-16°C / 3°F
Humidity
67%
Altimeter
29.91" Hg
Pressure
1012.92 hPa